Time;durP1;ratioP1;P1;durP2;ratioP2;P2;SDS_P1;SDS_P2;PMS_P1;PMS_P2;Temp;Humidity;BMP_temperature;BMP_pressure;BME280_temperature;BME280_humidity;BME280_pressure;Samples;Min_cycle;Max_cycle;Signal;HPM_P1;HPM_P2
2021/08/02 00:01:10;;;;;;;21.15;16.38;;;;;;;22.38;72.00;99255.25;5068692;28;20040;-49
2021/08/02 00:03:56;;;;;;;16.42;14.25;;;;;;;22.53;71.55;99240.53;5093186;28;20032;-48
2021/08/02 00:06:24;;;;;;;15.77;14.10;;;;;;;22.47;71.52;99240.38;5093019;28;20417;-49
2021/08/02 00:09:05;;;;;;;17.77;14.80;;;;;;;22.53;71.76;99241.38;5093118;28;20032;-48
2021/08/02 00:11:39;;;;;;;20.30;14.27;;;;;;;22.57;71.58;99242.63;5092812;28;20106;-54
2021/08/02 00:14:08;;;;;;;15.63;14.02;;;;;;;22.49;71.89;99230.06;5093078;28;20028;-51
2021/08/02 00:16:37;;;;;;;16.85;14.77;;;;;;;22.49;71.77;99226.50;5092341;28;20028;-49
2021/08/02 00:19:05;;;;;;;16.15;14.48;;;;;;;22.37;71.83;99231.75;5092564;28;20430;-51
2021/08/02 00:21:31;;;;;;;14.98;13.38;;;;;;;22.26;72.51;99236.00;5092477;28;20078;-53
2021/08/02 00:23:57;;;;;;;17.92;13.73;;;;;;;22.19;72.65;99227.00;5092815;28;20110;-51
2021/08/02 00:26:22;;;;;;;19.77;14.15;;;;;;;22.15;72.95;99231.22;5092415;28;20028;-54
2021/08/02 00:28:48;;;;;;;20.45;14.68;;;;;;;22.08;73.13;99231.22;5092062;28;20028;-52
2021/08/02 00:31:15;;;;;;;15.88;14.18;;;;;;;22.01;73.60;99233.97;5092961;28;20036;-53
2021/08/02 00:33:40;;;;;;;15.75;14.02;;;;;;;21.80;73.59;99200.47;5092904;28;20028;-50
2021/08/02 00:36:24;;;;;;;16.88;13.55;;;;;;;22.07;73.26;99229.56;5092607;28;20031;-53
2021/08/02 00:39:01;;;;;;;16.48;13.68;;;;;;;22.04;73.42;99216.38;5092378;28;20039;-49
2021/08/02 00:41:45;;;;;;;14.98;13.32;;;;;;;22.07;72.94;99210.47;5092267;28;20113;-49
2021/08/02 00:44:10;;;;;;;17.15;13.95;;;;;;;22.06;73.33;99211.53;5092305;28;20357;-48
2021/08/02 00:46:42;;;;;;;16.75;14.13;;;;;;;22.12;72.77;99213.38;5092204;28;20078;-50
2021/08/02 00:49:10;;;;;;;15.35;13.65;;;;;;;22.03;73.16;99209.25;5092077;28;20387;-48
2021/08/02 00:51:46;;;;;;;15.13;13.35;;;;;;;22.10;73.05;99220.94;5092845;28;20064;-52
2021/08/02 00:54:14;;;;;;;15.30;13.60;;;;;;;22.04;73.19;99213.63;5092331;28;20035;-49
2021/08/02 00:56:41;;;;;;;15.18;13.57;;;;;;;21.94;73.46;99205.91;5091910;28;20383;-50
2021/08/02 00:59:06;;;;;;;15.27;13.65;;;;;;;21.87;73.71;99210.53;5091967;28;20410;-47
2021/08/02 01:01:34;;;;;;;15.80;13.48;;;;;;;21.78;73.78;99204.47;5092218;28;20074;-50
2021/08/02 01:04:01;;;;;;;15.70;14.10;;;;;;;21.76;74.38;99203.84;5091860;28;20048;-52
2021/08/02 01:06:31;;;;;;;15.30;13.80;;;;;;;21.74;74.31;99206.78;5091435;28;20024;-52
2021/08/02 01:09:01;;;;;;;17.90;14.55;;;;;;;21.70;74.61;99204.69;5091900;28;20039;-56
2021/08/02 01:11:28;;;;;;;15.52;13.82;;;;;;;21.63;74.97;99215.59;5091734;28;20028;-55
2021/08/02 01:13:55;;;;;;;15.43;13.82;;;;;;;21.56;74.74;99215.59;5091929;28;20034;-51
2021/08/02 01:16:21;;;;;;;15.95;14.30;;;;;;;21.52;74.99;99222.50;5091709;28;20478;-53
2021/08/02 01:18:48;;;;;;;15.13;13.70;;;;;;;21.51;74.74;99221.66;5091677;28;20064;-50
2021/08/02 01:21:19;;;;;;;15.95;14.25;;;;;;;21.48;75.84;99229.44;5091299;28;20438;-54
2021/08/02 01:23:47;;;;;;;16.33;14.02;;;;;;;21.48;75.64;99219.34;5091719;28;20028;-52
2021/08/02 01:26:43;;;;;;;15.85;13.95;;;;;;;21.62;75.15;99224.81;5091200;28;20451;-49
2021/08/02 01:29:27;;;;;;;;;;;;;;;21.82;73.49;99221.22;5091135;28;20032;-47
2021/08/02 01:31:53;;;;;;;14.00;12.70;;;;;;;21.61;74.77;99223.94;5091910;28;19908;-53
2021/08/02 01:34:18;;;;;;;15.55;14.02;;;;;;;21.58;75.39;99221.66;5091332;28;20032;-56
2021/08/02 01:36:44;;;;;;;18.60;14.45;;;;;;;21.58;75.38;99227.09;5091408;28;20036;-52
2021/08/02 01:39:09;;;;;;;22.13;15.70;;;;;;;21.58;75.53;99221.66;5091646;28;20114;-50
2021/08/02 01:41:35;;;;;;;17.25;15.35;;;;;;;21.59;75.71;99222.50;5091238;28;20475;-50
2021/08/02 01:44:00;;;;;;;19.55;15.70;;;;;;;21.60;75.69;99216.00;5091567;28;20031;-50
2021/08/02 01:46:51;;;;;;;16.23;14.63;;;;;;;21.72;75.37;99214.34;5091061;28;20170;-53
2021/08/02 01:49:42;;;;;;;16.98;14.90;;;;;;;21.52;75.46;99192.56;5091695;28;20024;-55
2021/08/02 01:52:17;;;;;;;16.92;15.07;;;;;;;21.65;75.37;99213.50;5091709;28;20024;-49
2021/08/02 01:54:54;;;;;;;19.67;16.25;;;;;;;21.69;75.55;99211.19;5091449;28;20052;-49
2021/08/02 01:57:53;;;;;;;18.98;16.50;;;;;;;21.73;75.16;99209.72;5091332;28;20040;-50
2021/08/02 02:00:19;;;;;;;16.88;15.13;;;;;;;21.59;75.60;99217.06;5076120;28;20127;-51
2021/08/02 02:03:17;;;;;;;17.58;15.80;;;;;;;21.73;75.21;99217.91;5090772;28;20032;-53
2021/08/02 02:05:46;;;;;;;17.17;15.32;;;;;;;21.64;75.77;99217.25;5090006;28;20134;-47
2021/08/02 02:08:37;;;;;;;20.23;15.25;;;;;;;21.75;75.46;99204.91;5091040;28;20036;-50
2021/08/02 02:11:03;;;;;;;16.55;14.68;;;;;;;21.64;75.37;99200.91;5091009;28;20036;-51
2021/08/02 02:13:36;;;;;;;16.23;14.50;;;;;;;21.73;75.20;99207.00;5086785;28;20036;-52
2021/08/02 02:16:03;;;;;;;19.63;15.32;;;;;;;21.72;75.14;99203.44;5089177;28;20036;-51
2021/08/02 02:18:32;;;;;;;18.40;15.48;;;;;;;21.79;74.93;99203.44;5089885;28;20046;-50
2021/08/02 02:21:00;;;;;;;20.05;15.38;;;;;;;21.85;74.93;99197.13;5091265;28;20047;-50
2021/08/02 02:23:27;;;;;;;17.05;14.80;;;;;;;21.89;74.46;99192.91;5091068;28;20040;-50
2021/08/02 02:25:53;;;;;;;17.45;15.65;;;;;;;21.92;74.10;99187.03;5091102;28;20028;-48
2021/08/02 02:28:20;;;;;;;18.27;14.70;;;;;;;21.98;74.10;99184.53;5090968;28;20055;-50
2021/08/02 02:30:46;;;;;;;16.40;14.23;;;;;;;22.00;73.79;99169.59;5091176;28;20028;-50
2021/08/02 02:33:14;;;;;;;17.02;15.20;;;;;;;22.07;73.58;99177.78;5090763;28;20089;-49
2021/08/02 02:35:42;;;;;;;16.50;14.55;;;;;;;22.03;73.58;99174.63;5090910;28;20062;-51
2021/08/02 02:38:12;;;;;;;16.63;15.00;;;;;;;22.10;73.44;99182.78;5091037;28;20068;-48
2021/08/02 02:40:39;;;;;;;16.25;14.55;;;;;;;22.08;73.28;99169.38;5093230;28;20036;-48
2021/08/02 02:43:06;;;;;;;20.08;14.63;;;;;;;22.07;73.42;99175.03;5094652;28;20020;-50
2021/08/02 02:45:36;;;;;;;15.98;14.38;;;;;;;22.20;72.57;99183.19;5094948;28;20032;-59
2021/08/02 02:48:03;;;;;;;15.40;13.93;;;;;;;22.23;72.34;99182.75;5094923;28;20414;-53
2021/08/02 02:50:28;;;;;;;16.23;12.80;;;;;;;22.30;71.16;99171.78;5094941;28;20032;-47
2021/08/02 02:52:54;;;;;;;18.30;11.93;;;;;;;22.39;70.22;99171.56;5094656;28;20028;-50
2021/08/02 02:55:23;;;;;;;15.93;11.80;;;;;;;22.53;69.56;99172.34;5094173;28;20464;-49
2021/08/02 02:57:48;;;;;;;15.05;12.15;;;;;;;22.61;68.92;99175.66;5094520;28;20023;-48
2021/08/02 03:00:14;;;;;;;14.55;13.05;;;;;;;22.73;69.12;99183.97;5094605;28;20368;-53
2021/08/02 03:02:41;;;;;;;13.90;12.07;;;;;;;22.87;68.43;99192.91;5094633;28;20028;-53
2021/08/02 03:05:09;;;;;;;16.33;12.23;;;;;;;23.06;67.53;99188.38;5094767;28;20115;-52
2021/08/02 03:07:38;;;;;;;16.40;11.63;;;;;;;23.25;66.89;99190.31;5094101;28;20467;-49
2021/08/02 03:10:05;;;;;;;20.30;12.57;;;;;;;23.42;66.70;99193.38;5093983;28;20365;-55
2021/08/02 03:12:30;;;;;;;14.52;12.07;;;;;;;23.64;65.36;99208.28;5093834;28;20067;-50
2021/08/02 03:14:56;;;;;;;16.40;11.82;;;;;;;23.85;64.29;99203.44;5094039;28;20059;-54
2021/08/02 03:17:22;;;;;;;14.63;12.05;;;;;;;24.03;63.15;99212.75;5093726;28;20102;-48
2021/08/02 03:19:48;;;;;;;15.73;10.23;;;;;;;24.18;61.63;99218.69;5093104;28;20044;-52
2021/08/02 03:22:13;;;;;;;14.43;11.00;;;;;;;24.34;60.97;99213.63;5094148;28;20078;-52
2021/08/02 03:24:45;;;;;;;12.48;10.52;;;;;;;24.49;60.20;99210.53;5093915;28;20032;-51
2021/08/02 03:27:16;;;;;;;14.65;10.55;;;;;;;24.61;59.43;99216.06;5093581;28;20035;-52
2021/08/02 03:29:45;;;;;;;12.15;10.45;;;;;;;24.69;57.97;99218.44;5094054;28;20109;-51
2021/08/02 03:32:14;;;;;;;12.43;9.38;;;;;;;24.66;57.20;99216.19;5094043;28;20032;-51
2021/08/02 03:34:39;;;;;;;11.93;9.90;;;;;;;24.51;57.00;99214.69;5093925;28;20038;-50
2021/08/02 03:37:10;;;;;;;10.05;9.02;;;;;;;24.48;57.03;99223.34;5093235;28;20028;-51
2021/08/02 03:39:37;;;;;;;12.98;9.13;;;;;;;24.28;56.39;99209.94;5093609;28;20082;-56
2021/08/02 03:42:04;;;;;;;15.25;9.45;;;;;;;24.27;56.85;99216.47;5093396;28;20068;-52
2021/08/02 03:44:32;;;;;;;13.40;10.00;;;;;;;24.36;56.97;99220.56;5093342;28;20059;-49
2021/08/02 03:46:58;;;;;;;11.75;8.98;;;;;;;24.49;56.05;99221.47;5093583;28;20050;-51
2021/08/02 03:49:23;;;;;;;14.60;9.98;;;;;;;24.88;54.41;99221.19;5093173;28;20071;-50
2021/08/02 03:51:54;;;;;;;11.57;10.02;;;;;;;25.25;53.84;99229.22;5092413;28;20104;-52
2021/08/02 03:54:19;;;;;;;15.98;10.85;;;;;;;25.34;52.98;99227.84;5093183;28;20376;-49
2021/08/02 03:56:46;;;;;;;15.48;10.60;;;;;;;25.42;52.73;99232.09;5093512;28;20028;-52
2021/08/02 03:59:11;;;;;;;15.23;10.32;;;;;;;25.55;52.57;99206.41;5093024;28;20062;-52
2021/08/02 04:01:42;;;;;;;15.20;10.05;;;;;;;25.83;52.13;99210.34;5092337;28;20062;-55
2021/08/02 04:04:08;;;;;;;13.32;10.18;;;;;;;26.12;50.97;99201.34;5093233;28;20062;-53
2021/08/02 04:06:34;;;;;;;14.38;9.65;;;;;;;26.97;48.38;99204.41;5074872;28;20052;-50
2021/08/02 04:09:01;;;;;;;14.32;10.23;;;;;;;28.03;46.02;99206.63;5092648;28;20384;-55
2021/08/02 04:11:26;;;;;;;12.70;9.77;;;;;;;29.00;43.14;99197.84;5092856;28;20262;-49
2021/08/02 04:13:52;;;;;;;11.82;8.82;;;;;;;29.68;41.30;99196.47;5093373;28;20032;-50
2021/08/02 04:16:17;;;;;;;12.80;8.98;;;;;;;30.29;39.24;99172.22;5092827;28;20535;-50
2021/08/02 04:18:43;;;;;;;14.70;8.63;;;;;;;31.07;37.40;99187.03;5092582;28;20044;-50
2021/08/02 04:21:08;;;;;;;12.00;9.13;;;;;;;31.55;35.79;99167.38;5092412;28;20416;-49
2021/08/02 04:23:34;;;;;;;11.18;7.55;;;;;;;32.17;34.23;99183.81;5093252;28;20020;-51
2021/08/02 04:25:59;;;;;;;14.18;8.18;;;;;;;32.66;33.23;99170.28;5092843;28;20031;-52
2021/08/02 04:28:25;;;;;;;10.93;7.80;;;;;;;33.20;32.01;99171.31;5092656;28;20231;-56
2021/08/02 04:30:50;;;;;;;11.30;7.90;;;;;;;33.91;31.10;99179.19;5092478;28;20063;-54
2021/08/02 04:33:17;;;;;;;10.18;7.43;;;;;;;34.76;29.62;99181.47;5092627;28;20028;-52
2021/08/02 04:35:43;;;;;;;9.85;7.38;;;;;;;35.49;28.19;99177.50;5092566;28;20030;-57
2021/08/02 04:38:09;;;;;;;10.18;6.85;;;;;;;35.96;26.85;99179.41;5092309;28;20036;-51
2021/08/02 04:40:35;;;;;;;7.47;6.15;;;;;;;36.24;26.22;99162.69;5092425;28;20036;-52
2021/08/02 04:43:00;;;;;;;9.23;6.82;;;;;;;36.59;26.04;99171.41;5092447;28;20040;-50
2021/08/02 04:45:26;;;;;;;8.70;7.05;;;;;;;36.96;24.89;99146.25;5092457;28;20107;-51
2021/08/02 04:47:51;;;;;;;8.82;6.47;;;;;;;37.26;25.02;99158.63;5073959;28;20112;-47
2021/08/02 04:50:17;;;;;;;9.25;7.35;;;;;;;37.13;24.98;99176.28;5091804;28;20181;-52
2021/08/02 04:52:44;;;;;;;7.43;6.03;;;;;;;37.24;24.78;99174.88;5092249;28;20411;-52
2021/08/02 04:55:10;;;;;;;8.52;6.75;;;;;;;37.60;24.33;99157.19;5091993;28;20388;-57
2021/08/02 04:57:36;;;;;;;8.00;6.15;;;;;;;38.36;23.22;99182.44;5074020;28;20135;-53
2021/08/02 05:00:04;;;;;;;7.93;6.45;;;;;;;38.86;22.80;99181.16;5091870;28;20031;-51
2021/08/02 05:02:30;;;;;;;7.50;6.70;;;;;;;39.33;21.69;99160.84;5091766;28;20050;-53
2021/08/02 05:04:56;;;;;;;6.60;5.95;;;;;;;39.97;21.05;99157.50;5091161;28;20040;-50
2021/08/02 05:07:21;;;;;;;12.40;6.30;;;;;;;40.73;20.31;99158.47;5091675;28;20101;-49
2021/08/02 05:09:47;;;;;;;7.28;6.57;;;;;;;40.54;20.77;99150.53;5091763;28;20034;-53
2021/08/02 05:12:13;;;;;;;7.60;6.78;;;;;;;40.89;20.40;99158.69;5091702;28;20081;-54
2021/08/02 05:14:38;;;;;;;7.82;7.05;;;;;;;40.76;20.24;99165.41;5091698;28;20489;-58
2021/08/02 05:17:04;;;;;;;8.10;6.93;;;;;;;40.46;20.85;99157.84;5091346;28;20048;-52
2021/08/02 05:19:29;;;;;;;8.07;7.28;;;;;;;40.36;21.17;99158.28;5091515;28;20044;-52
2021/08/02 05:21:55;;;;;;;8.07;7.28;;;;;;;40.22;20.95;99157.69;5091631;28;20039;-50
2021/08/02 05:24:20;;;;;;;7.70;7.00;;;;;;;39.86;21.92;99163.50;5091238;28;20069;-51
2021/08/02 05:26:46;;;;;;;7.45;6.68;;;;;;;39.67;21.71;99147.09;5091541;28;20160;-52
2021/08/02 05:29:11;;;;;;;8.07;7.07;;;;;;;39.70;21.87;99152.03;5091537;28;20024;-56
2021/08/02 05:31:36;;;;;;;7.95;7.25;;;;;;;39.96;21.82;99144.66;5091391;28;20456;-49
2021/08/02 05:34:02;;;;;;;7.63;6.85;;;;;;;40.43;21.06;99147.31;5091680;28;20032;-54
2021/08/02 05:36:27;;;;;;;8.60;7.70;;;;;;;40.45;21.36;99142.19;5091609;28;20024;-50
2021/08/02 05:38:53;;;;;;;7.93;7.05;;;;;;;39.94;21.91;99149.78;5091539;28;20047;-50
2021/08/02 05:41:18;;;;;;;8.07;7.18;;;;;;;39.76;22.09;99141.41;5091392;28;20384;-53
2021/08/02 05:43:44;;;;;;;8.00;6.90;;;;;;;39.75;22.49;99151.81;5091487;28;20050;-51
2021/08/02 05:46:10;;;;;;;7.55;6.85;;;;;;;39.67;22.37;99149.06;5091239;28;20078;-53
2021/08/02 05:48:35;;;;;;;7.80;7.00;;;;;;;39.83;22.25;99152.13;5091068;28;20067;-54
2021/08/02 05:51:01;;;;;;;7.75;7.00;;;;;;;40.72;21.17;99151.22;5091683;28;20032;-50
2021/08/02 05:53:26;;;;;;;9.88;6.65;;;;;;;41.36;20.48;99148.31;5091159;28;20368;-52
2021/08/02 05:55:52;;;;;;;8.18;6.90;;;;;;;42.06;19.71;99159.84;5091054;28;20028;-51
2021/08/02 05:58:17;;;;;;;11.02;6.93;;;;;;;43.27;18.52;99157.34;5091409;28;20387;-51
2021/08/02 06:00:43;;;;;;;7.65;6.95;;;;;;;43.91;17.66;99153.78;5091015;28;20038;-57
2021/08/02 06:03:08;;;;;;;7.63;6.93;;;;;;;44.42;17.37;99144.44;5058168;28;20092;-52
2021/08/02 06:05:33;;;;;;;8.07;7.25;;;;;;;44.29;17.44;99146.59;5080453;28;20040;-53
2021/08/02 06:07:59;;;;;;;9.10;7.05;;;;;;;44.33;17.68;99138.22;5064033;28;20378;-56
2021/08/02 06:10:25;;;;;;;7.43;6.78;;;;;;;44.66;17.49;99143.38;5078997;28;20130;-55
2021/08/02 06:12:59;;;;;;;8.05;7.20;;;;;;;45.50;17.30;99150.63;5080589;28;20024;-50
2021/08/02 06:15:24;;;;;;;;;;;;;;;47.23;16.40;99146.50;5087615;28;20035;-53
2021/08/02 06:17:50;;;;;;;7.50;6.77;;;;;;;46.94;14.92;99143.38;5095465;28;20294;-54
2021/08/02 06:20:15;;;;;;;8.45;6.72;;;;;;;47.74;14.27;99132.00;5095165;28;20372;-53
2021/08/02 06:22:41;;;;;;;8.20;6.63;;;;;;;48.57;13.91;99121.13;5089504;28;20463;-54
2021/08/02 06:25:07;;;;;;;8.05;7.25;;;;;;;47.36;14.54;99124.38;5083521;28;20100;-57
2021/08/02 06:27:33;;;;;;;7.80;7.18;;;;;;;46.70;15.29;99117.22;5061198;28;20032;-53
2021/08/02 06:29:59;;;;;;;8.40;7.53;;;;;;;47.26;14.74;99113.75;5078720;28;20092;-52
2021/08/02 06:32:28;;;;;;;9.70;7.20;;;;;;;48.11;14.24;99119.66;5076551;28;20431;-54
2021/08/02 06:34:54;;;;;;;8.02;7.05;;;;;;;48.37;14.08;99110.06;5085029;28;20364;-53
2021/08/02 06:37:22;;;;;;;16.27;7.78;;;;;;;48.70;13.80;99105.31;5094761;28;20050;-55
2021/08/02 06:39:47;;;;;;;8.18;7.38;;;;;;;47.94;14.01;99101.31;5094601;28;20028;-53
2021/08/02 06:42:14;;;;;;;8.80;7.43;;;;;;;45.85;16.20;99102.34;5092841;28;20047;-49
2021/08/02 06:44:41;;;;;;;8.57;7.68;;;;;;;44.23;17.40;99119.88;5095024;28;20031;-53
2021/08/02 06:47:06;;;;;;;8.85;6.90;;;;;;;42.68;19.45;99111.91;5094920;28;20107;-53
2021/08/02 06:49:31;;;;;;;8.32;6.93;;;;;;;41.82;20.65;99117.34;5093736;28;20364;-52
2021/08/02 06:51:57;;;;;;;8.30;7.10;;;;;;;41.07;21.46;99119.19;5057881;28;20055;-55
2021/08/02 06:54:22;;;;;;;8.07;7.00;;;;;;;40.26;22.54;99116.56;5073270;28;20029;-48
2021/08/02 06:56:48;;;;;;;8.20;7.40;;;;;;;39.92;23.05;99110.06;5073901;28;20436;-53
2021/08/02 06:59:13;;;;;;;8.20;7.45;;;;;;;39.60;23.12;99088.78;5074583;28;20024;-52
2021/08/02 07:01:39;;;;;;;9.50;7.70;;;;;;;39.05;24.29;99124.84;5073741;28;20476;-52
2021/08/02 07:04:04;;;;;;;9.55;7.03;;;;;;;37.73;25.91;99121.09;5073903;28;20040;-51
2021/08/02 07:06:30;;;;;;;12.02;7.85;;;;;;;36.46;27.79;99123.72;5088896;28;20412;-50
2021/08/02 07:08:58;;;;;;;8.57;7.28;;;;;;;35.32;29.96;99130.75;5091528;28;20512;-53
2021/08/02 07:11:27;;;;;;;10.00;6.90;;;;;;;34.53;31.36;99135.13;5091326;28;20027;-51
2021/08/02 07:13:54;;;;;;;8.95;6.93;;;;;;;33.59;32.91;99135.41;5090959;28;20024;-50
2021/08/02 07:16:23;;;;;;;8.57;7.40;;;;;;;33.01;34.10;99140.66;5091271;28;20038;-52
2021/08/02 07:18:51;;;;;;;9.55;8.02;;;;;;;32.11;36.08;99129.59;5090865;28;20059;-54
2021/08/02 07:21:17;;;;;;;10.50;7.65;;;;;;;31.51;37.35;99135.84;5091965;28;20044;-55
2021/08/02 07:23:42;;;;;;;10.00;7.75;;;;;;;31.03;38.54;99120.41;5093054;28;20396;-52
2021/08/02 07:26:08;;;;;;;9.40;6.95;;;;;;;30.63;39.23;99122.06;5091667;28;20328;-50
2021/08/02 07:28:33;;;;;;;8.85;7.80;;;;;;;30.23;40.38;99118.91;5092906;28;20039;-50
2021/08/02 07:30:59;;;;;;;8.80;7.70;;;;;;;29.92;40.64;99110.50;5092943;28;20097;-49
2021/08/02 07:33:24;;;;;;;9.75;8.52;;;;;;;29.62;42.58;99140.44;5092481;28;20020;-48
2021/08/02 07:35:51;;;;;;;11.00;8.48;;;;;;;29.22;43.78;99136.31;5092327;28;20583;-48
2021/08/02 07:38:16;;;;;;;9.95;8.88;;;;;;;28.78;44.48;99118.84;5092980;28;20456;-55
2021/08/02 07:40:42;;;;;;;12.23;9.25;;;;;;;28.61;45.42;99135.50;5092238;28;20047;-49
2021/08/02 07:43:07;;;;;;;10.10;8.85;;;;;;;28.33;47.29;99125.56;5092543;28;20036;-53
2021/08/02 07:45:33;;;;;;;19.48;10.90;;;;;;;28.16;49.10;99134.72;5092637;28;20024;-49
2021/08/02 07:47:58;;;;;;;12.73;9.32;;;;;;;28.02;49.87;99122.44;5092870;28;20032;-55
2021/08/02 07:50:23;;;;;;;11.38;9.55;;;;;;;27.76;50.04;99113.88;5092972;28;20082;-54
2021/08/02 07:52:49;;;;;;;13.23;9.57;;;;;;;27.55;51.12;99121.84;5093582;28;20103;-54
2021/08/02 07:55:15;;;;;;;11.90;10.00;;;;;;;27.31;51.67;99107.44;5091576;28;20027;-51
2021/08/02 07:57:41;;;;;;;12.20;10.48;;;;;;;27.07;52.54;99116.72;5093197;28;20039;-52
2021/08/02 08:00:08;;;;;;;10.48;9.38;;;;;;;26.96;52.48;99111.28;5092970;28;20036;-52
2021/08/02 08:02:34;;;;;;;13.30;10.23;;;;;;;26.72;54.22;99114.97;5092751;28;20024;-52
2021/08/02 08:04:59;;;;;;;11.63;10.43;;;;;;;26.56;54.45;99110.31;5066803;28;20031;-50
2021/08/02 08:07:25;;;;;;;12.00;10.27;;;;;;;26.35;55.07;99090.75;5084734;28;20020;-49
2021/08/02 08:09:50;;;;;;;11.27;10.25;;;;;;;26.26;55.10;99075.72;5083206;28;20039;-53
2021/08/02 08:12:15;;;;;;;11.93;10.07;;;;;;;26.26;55.21;99075.72;5081622;28;20436;-55
2021/08/02 08:14:41;;;;;;;12.85;10.20;;;;;;;26.16;55.07;99079.09;5082890;28;20043;-54
2021/08/02 08:17:07;;;;;;;11.10;10.00;;;;;;;26.08;55.96;99074.84;5082560;28;20045;-53
2021/08/02 08:19:32;;;;;;;12.82;11.13;;;;;;;25.81;56.83;99050.75;5089877;28;20133;-49
2021/08/02 08:21:58;;;;;;;12.30;10.75;;;;;;;25.98;57.19;99091.09;5092831;28;20054;-48
2021/08/02 08:24:24;;;;;;;13.20;11.13;;;;;;;25.88;57.43;99087.06;5093223;28;20059;-47
2021/08/02 08:26:49;;;;;;;15.50;11.45;;;;;;;25.78;58.39;99063.03;5092937;28;20071;-51
2021/08/02 08:29:15;;;;;;;17.38;10.98;;;;;;;25.72;58.22;99060.41;5074730;28;20222;-48
2021/08/02 08:31:41;;;;;;;13.85;11.82;;;;;;;25.67;58.40;99052.09;5092888;28;20047;-49
2021/08/02 08:34:06;;;;;;;14.23;12.30;;;;;;;25.65;59.06;99060.53;5091645;28;20024;-48
2021/08/02 08:36:32;;;;;;;12.65;11.35;;;;;;;25.59;59.02;99065.09;5089085;28;20032;-52
2021/08/02 08:38:58;;;;;;;14.77;11.80;;;;;;;25.54;60.02;99012.09;5092169;28;20038;-48
2021/08/02 08:41:23;;;;;;;17.00;11.88;;;;;;;25.48;61.96;99012.00;5092633;28;20459;-51
2021/08/02 08:43:52;;;;;;;17.15;12.00;;;;;;;25.59;61.17;99015.78;5085455;28;20047;-58
2021/08/02 08:46:22;;;;;;;11.93;10.45;;;;;;;25.90;57.22;99002.66;5083991;28;20052;-49
2021/08/02 08:48:49;;;;;;;15.13;11.93;;;;;;;26.40;57.82;98989.28;5089076;28;20098;-51
2021/08/02 08:51:14;;;;;;;15.80;12.77;;;;;;;27.02;56.16;98995.75;5061648;28;20652;-50
2021/08/02 08:53:44;;;;;;;14.02;11.95;;;;;;;27.70;54.60;98980.97;5080642;28;20036;-51
2021/08/02 08:56:11;;;;;;;15.65;11.52;;;;;;;28.17;52.66;98985.03;5081929;28;20367;-50
2021/08/02 08:58:36;;;;;;;15.77;11.95;;;;;;;28.57;51.09;98973.81;5089258;28;20042;-51
2021/08/02 09:01:04;;;;;;;14.10;11.80;;;;;;;28.94;50.41;98995.84;5089705;28;20031;-49
2021/08/02 09:03:30;;;;;;;16.08;12.20;;;;;;;29.21;48.76;98972.03;5091447;28;20592;-50
2021/08/02 09:06:08;;;;;;;15.68;11.00;;;;;;;29.73;47.40;98972.22;5090342;28;20127;-44
2021/08/02 09:08:43;;;;;;;16.48;11.18;;;;;;;29.93;46.88;98969.53;5091577;28;20070;-48
2021/08/02 09:11:15;;;;;;;14.25;12.02;;;;;;;29.91;46.86;98959.84;5091746;28;20031;-46
2021/08/02 09:13:41;;;;;;;18.45;12.73;;;;;;;30.08;46.79;98959.63;5091258;28;20102;-48
2021/08/02 09:16:27;;;;;;;22.42;13.10;;;;;;;30.52;46.11;98961.00;5090620;28;20040;-51
2021/08/02 09:19:02;;;;;;;15.60;10.48;;;;;;;30.53;44.94;98961.81;5089996;28;20040;-51
2021/08/02 09:21:38;;;;;;;16.77;9.55;;;;;;;30.46;43.90;98942.75;5073219;28;20051;-49
2021/08/02 09:24:04;;;;;;;11.43;8.75;;;;;;;30.55;42.88;98945.78;5091585;28;20032;-50
2021/08/02 09:26:35;;;;;;;18.52;10.30;;;;;;;30.74;43.05;98941.38;5090683;28;20077;-51
2021/08/02 09:29:01;;;;;;;19.95;10.57;;;;;;;30.70;43.44;98934.75;5091097;28;20419;-49
2021/08/02 09:31:38;;;;;;;17.73;10.80;;;;;;;30.77;43.21;98943.56;5090033;28;20072;-47
2021/08/02 09:34:08;;;;;;;11.70;9.48;;;;;;;30.43;42.50;98935.88;5076604;28;20040;-46
2021/08/02 09:36:38;;;;;;;13.57;9.20;;;;;;;30.28;42.60;98938.66;5075133;28;20090;-47
2021/08/02 09:39:13;;;;;;;13.05;8.27;;;;;;;30.47;42.04;98922.31;5084817;28;20040;-48
2021/08/02 09:41:39;;;;;;;13.93;8.10;;;;;;;30.70;42.20;98920.94;5082850;28;20161;-49
2021/08/02 09:44:05;;;;;;;12.25;9.38;;;;;;;31.01;42.17;98918.09;5084360;28;20106;-54
2021/08/02 09:46:32;;;;;;;14.02;10.75;;;;;;;31.36;41.29;98916.31;5089780;28;20040;-55
2021/08/02 09:49:03;;;;;;;13.32;10.05;;;;;;;31.73;40.76;98916.09;5090331;28;20032;-47
2021/08/02 09:51:41;;;;;;;11.80;9.68;;;;;;;32.00;40.72;98921.19;5090953;28;20032;-48
2021/08/02 09:54:06;;;;;;;11.10;9.95;;;;;;;31.79;40.28;98901.97;5090920;28;20059;-47
2021/08/02 09:56:32;;;;;;;15.02;9.48;;;;;;;31.77;39.45;98922.72;5090198;28;20455;-50
2021/08/02 09:58:58;;;;;;;10.13;8.65;;;;;;;31.67;38.77;98922.78;5090789;28;20032;-49
2021/08/02 10:01:23;;;;;;;13.95;8.75;;;;;;;31.69;38.97;98906.72;5090711;28;20521;-54
2021/08/02 10:03:49;;;;;;;15.77;9.10;;;;;;;31.76;39.19;98905.31;5091350;28;20028;-46
2021/08/02 10:06:15;;;;;;;9.60;8.27;;;;;;;31.66;38.73;98899.81;5090630;28;20099;-49
2021/08/02 10:08:42;;;;;;;11.38;8.57;;;;;;;31.57;38.91;98902.34;5091149;28;20028;-54
2021/08/02 10:11:08;;;;;;;9.13;8.18;;;;;;;31.55;39.51;98898.22;5091089;28;20483;-48
2021/08/02 10:13:41;;;;;;;13.43;9.20;;;;;;;31.57;39.92;98896.81;5090618;28;20043;-45
2021/08/02 10:16:10;;;;;;;9.63;8.27;;;;;;;31.51;38.91;98892.44;5090307;28;20050;-51
2021/08/02 10:18:38;;;;;;;8.50;7.63;;;;;;;31.48;38.93;98888.31;5088816;28;20063;-47
2021/08/02 10:21:11;;;;;;;9.27;7.80;;;;;;;31.67;39.56;98886.81;5070425;28;20044;-46
2021/08/02 10:23:40;;;;;;;11.88;7.53;;;;;;;31.50;39.40;98888.00;5070019;28;20468;-45
2021/08/02 10:26:19;;;;;;;11.52;8.32;;;;;;;31.58;39.11;98892.94;5080213;28;20442;-52
2021/08/02 10:29:11;;;;;;;10.07;8.15;;;;;;;31.53;38.84;98897.69;5090321;28;20086;-44
2021/08/02 10:31:48;;;;;;;9.43;7.95;;;;;;;31.35;39.18;98903.59;5085175;28;20044;-46
2021/08/02 10:34:24;;;;;;;14.63;8.52;;;;;;;31.17;39.94;98898.69;5090211;28;20119;-45
2021/08/02 10:37:27;;;;;;;10.82;8.02;;;;;;;31.18;40.02;98894.81;5090612;28;20103;-48
2021/08/02 10:40:07;;;;;;;14.65;8.95;;;;;;;31.28;39.34;98900.31;5090968;28;20054;-47
2021/08/02 10:42:48;;;;;;;11.38;8.48;;;;;;;31.50;39.11;98905.44;5065057;28;20031;-50
2021/08/02 10:45:14;;;;;;;13.95;8.65;;;;;;;31.51;39.47;98889.66;5090244;28;20036;-48
2021/08/02 10:47:42;;;;;;;13.65;7.78;;;;;;;31.82;38.96;98892.25;5072139;28;20055;-52
2021/08/02 10:50:09;;;;;;;9.65;7.25;;;;;;;32.08;36.83;98878.22;5090377;28;20016;-50
2021/08/02 10:52:35;;;;;;;10.68;6.80;;;;;;;32.27;36.42;98883.84;5090326;28;20035;-47
2021/08/02 10:55:12;;;;;;;11.55;7.30;;;;;;;32.49;36.42;98877.84;5090011;28;20024;-49
2021/08/02 10:57:37;;;;;;;10.05;7.68;;;;;;;32.40;36.21;98884.31;5090437;28;20459;-44
2021/08/02 11:00:05;;;;;;;8.63;7.22;;;;;;;32.41;36.07;98869.34;5090254;28;20039;-46
2021/08/02 11:02:31;;;;;;;13.57;7.45;;;;;;;32.41;36.06;98872.94;5093932;28;20075;-49
2021/08/02 11:04:58;;;;;;;11.05;7.65;;;;;;;32.38;35.66;98879.06;5093919;28;20039;-47
2021/08/02 11:07:23;;;;;;;11.98;7.00;;;;;;;32.19;36.55;98863.16;5094120;28;20024;-45
2021/08/02 11:09:49;;;;;;;11.60;7.40;;;;;;;32.14;36.89;98879.81;5093981;28;20531;-46
2021/08/02 11:12:15;;;;;;;12.98;7.32;;;;;;;32.06;37.05;98872.13;5093858;28;20024;-43
2021/08/02 11:14:52;;;;;;;9.50;7.43;;;;;;;32.03;36.88;98886.56;5094115;28;20031;-47
2021/08/02 11:17:19;;;;;;;8.88;8.07;;;;;;;31.65;37.76;98887.94;5093450;28;20052;-49
2021/08/02 11:19:45;;;;;;;10.07;7.18;;;;;;;31.38;38.19;98884.78;5075356;28;20054;-46
2021/08/02 11:22:13;;;;;;;7.80;7.03;;;;;;;31.15;38.50;98887.91;5093704;28;20111;-45
2021/08/02 11:24:51;;;;;;;11.25;7.60;;;;;;;31.07;39.19;98885.72;5093676;28;20039;-46
2021/08/02 11:27:17;;;;;;;9.88;7.32;;;;;;;30.87;39.39;98865.34;5093262;28;20429;-48
2021/08/02 11:29:47;;;;;;;10.27;7.93;;;;;;;30.92;39.46;98864.53;5091578;28;20451;-46